sensor_id;sensor_type;location;lat;lon;timestamp;temperature;humidity
52731;DHT22;38624;53.242;6.974;2023-08-06T00:00:23;12.70;99.90
52731;DHT22;38624;53.242;6.974;2023-08-06T00:02:49;12.70;99.90
52731;DHT22;38624;53.242;6.974;2023-08-06T00:05:16;12.60;99.90
52731;DHT22;38624;53.242;6.974;2023-08-06T00:07:49;12.60;99.90
52731;DHT22;38624;53.242;6.974;2023-08-06T00:10:16;12.70;99.90
52731;DHT22;38624;53.242;6.974;2023-08-06T00:12:43;12.70;99.90
52731;DHT22;38624;53.242;6.974;2023-08-06T00:15:09;12.60;99.90
52731;DHT22;38624;53.242;6.974;2023-08-06T00:17:36;12.60;99.90
52731;DHT22;38624;53.242;6.974;2023-08-06T00:20:02;12.70;99.90
52731;DHT22;38624;53.242;6.974;2023-08-06T00:22:37;12.70;99.90
52731;DHT22;38624;53.242;6.974;2023-08-06T00:25:04;12.70;99.90
52731;DHT22;38624;53.242;6.974;2023-08-06T00:27:30;12.80;99.90
52731;DHT22;38624;53.242;6.974;2023-08-06T00:29:56;12.80;99.90
52731;DHT22;38624;53.242;6.974;2023-08-06T00:32:22;12.80;99.90
52731;DHT22;38624;53.242;6.974;2023-08-06T00:34:47;12.80;99.90
52731;DHT22;38624;53.242;6.974;2023-08-06T00:37:16;12.80;99.90
52731;DHT22;38624;53.242;6.974;2023-08-06T00:39:43;12.80;99.90
52731;DHT22;38624;53.242;6.974;2023-08-06T00:42:10;12.90;99.90
52731;DHT22;38624;53.242;6.974;2023-08-06T00:44:36;12.90;99.90
52731;DHT22;38624;53.242;6.974;2023-08-06T00:47:02;12.90;99.90
52731;DHT22;38624;53.242;6.974;2023-08-06T00:49:28;13.00;99.90
52731;DHT22;38624;53.242;6.974;2023-08-06T00:51:54;13.00;99.90
52731;DHT22;38624;53.242;6.974;2023-08-06T00:54:21;13.00;99.90
52731;DHT22;38624;53.242;6.974;2023-08-06T00:56:47;13.00;99.90
52731;DHT22;38624;53.242;6.974;2023-08-06T00:59:13;13.00;99.90
52731;DHT22;38624;53.242;6.974;2023-08-06T01:01:39;13.00;99.90
52731;DHT22;38624;53.242;6.974;2023-08-06T01:04:05;13.00;99.90
52731;DHT22;38624;53.242;6.974;2023-08-06T01:06:54;13.00;99.90
52731;DHT22;38624;53.242;6.974;2023-08-06T01:12:48;13.10;99.90
52731;DHT22;38624;53.242;6.974;2023-08-06T01:15:19;13.10;99.90
52731;DHT22;38624;53.242;6.974;2023-08-06T01:17:46;13.10;99.90
52731;DHT22;38624;53.242;6.974;2023-08-06T01:20:12;13.10;99.90
52731;DHT22;38624;53.242;6.974;2023-08-06T01:22:38;13.10;99.90
52731;DHT22;38624;53.242;6.974;2023-08-06T01:25:04;13.10;99.90
52731;DHT22;38624;53.242;6.974;2023-08-06T01:27:46;13.10;99.90
52731;DHT22;38624;53.242;6.974;2023-08-06T01:30:20;13.10;99.90
52731;DHT22;38624;53.242;6.974;2023-08-06T01:32:51;13.20;99.90
52731;DHT22;38624;53.242;6.974;2023-08-06T01:35:19;13.20;99.90
52731;DHT22;38624;53.242;6.974;2023-08-06T01:37:47;13.20;99.90
52731;DHT22;38624;53.242;6.974;2023-08-06T01:40:13;13.20;99.90
52731;DHT22;38624;53.242;6.974;2023-08-06T01:42:39;13.20;99.90
52731;DHT22;38624;53.242;6.974;2023-08-06T01:45:07;13.20;99.90
52731;DHT22;38624;53.242;6.974;2023-08-06T01:47:33;13.20;99.90
52731;DHT22;38624;53.242;6.974;2023-08-06T01:49:59;13.20;99.90
52731;DHT22;38624;53.242;6.974;2023-08-06T01:52:24;13.20;99.90
52731;DHT22;38624;53.242;6.974;2023-08-06T01:54:50;13.10;99.90
52731;DHT22;38624;53.242;6.974;2023-08-06T01:57:16;13.10;99.90
52731;DHT22;38624;53.242;6.974;2023-08-06T01:59:41;13.10;99.90
52731;DHT22;38624;53.242;6.974;2023-08-06T02:02:07;13.10;99.90
52731;DHT22;38624;53.242;6.974;2023-08-06T02:04:32;13.00;99.90
52731;DHT22;38624;53.242;6.974;2023-08-06T02:06:58;13.00;99.90
52731;DHT22;38624;53.242;6.974;2023-08-06T02:09:24;13.00;99.90
52731;DHT22;38624;53.242;6.974;2023-08-06T02:11:49;13.00;99.90
52731;DHT22;38624;53.242;6.974;2023-08-06T02:14:15;13.00;99.90
52731;DHT22;38624;53.242;6.974;2023-08-06T02:16:41;13.00;99.90
52731;DHT22;38624;53.242;6.974;2023-08-06T02:19:06;13.10;99.90
52731;DHT22;38624;53.242;6.974;2023-08-06T02:21:32;13.10;99.90
52731;DHT22;38624;53.242;6.974;2023-08-06T02:23:58;13.10;99.90
52731;DHT22;38624;53.242;6.974;2023-08-06T02:26:23;13.20;99.90
52731;DHT22;38624;53.242;6.974;2023-08-06T02:28:49;13.20;99.90
52731;DHT22;38624;53.242;6.974;2023-08-06T02:31:15;13.30;99.90
52731;DHT22;38624;53.242;6.974;2023-08-06T02:33:40;13.30;99.90
52731;DHT22;38624;53.242;6.974;2023-08-06T02:36:06;13.30;99.90
52731;DHT22;38624;53.242;6.974;2023-08-06T02:38:32;13.30;99.90
52731;DHT22;38624;53.242;6.974;2023-08-06T02:40:58;13.40;99.90
52731;DHT22;38624;53.242;6.974;2023-08-06T02:43:24;13.40;99.90
52731;DHT22;38624;53.242;6.974;2023-08-06T02:45:49;13.40;99.90
52731;DHT22;38624;53.242;6.974;2023-08-06T02:48:15;13.40;99.90
52731;DHT22;38624;53.242;6.974;2023-08-06T02:50:41;13.40;99.90
52731;DHT22;38624;53.242;6.974;2023-08-06T02:53:08;13.40;99.90
52731;DHT22;38624;53.242;6.974;2023-08-06T02:55:34;13.40;99.90
52731;DHT22;38624;53.242;6.974;2023-08-06T02:58:01;13.40;99.90
52731;DHT22;38624;53.242;6.974;2023-08-06T03:00:27;13.50;99.90
52731;DHT22;38624;53.242;6.974;2023-08-06T03:02:53;13.40;99.90
52731;DHT22;38624;53.242;6.974;2023-08-06T03:05:19;13.40;99.90
52731;DHT22;38624;53.242;6.974;2023-08-06T03:07:44;13.40;99.90
52731;DHT22;38624;53.242;6.974;2023-08-06T03:10:10;13.40;99.90
52731;DHT22;38624;53.242;6.974;2023-08-06T03:12:36;13.40;99.90
52731;DHT22;38624;53.242;6.974;2023-08-06T03:15:01;13.40;99.90
52731;DHT22;38624;53.242;6.974;2023-08-06T03:17:27;13.40;99.90
52731;DHT22;38624;53.242;6.974;2023-08-06T03:19:53;13.40;99.90
52731;DHT22;38624;53.242;6.974;2023-08-06T03:22:18;13.40;99.90
52731;DHT22;38624;53.242;6.974;2023-08-06T03:24:44;13.40;99.90
52731;DHT22;38624;53.242;6.974;2023-08-06T03:27:10;13.40;99.90
52731;DHT22;38624;53.242;6.974;2023-08-06T03:29:35;13.30;99.90
52731;DHT22;38624;53.242;6.974;2023-08-06T03:32:01;13.40;99.90
52731;DHT22;38624;53.242;6.974;2023-08-06T03:34:27;13.40;99.90
52731;DHT22;38624;53.242;6.974;2023-08-06T03:36:52;13.40;99.90
52731;DHT22;38624;53.242;6.974;2023-08-06T03:39:18;13.30;99.90
52731;DHT22;38624;53.242;6.974;2023-08-06T03:41:44;13.30;99.90
52731;DHT22;38624;53.242;6.974;2023-08-06T03:44:09;13.30;99.90
52731;DHT22;38624;53.242;6.974;2023-08-06T03:46:35;13.30;99.90
52731;DHT22;38624;53.242;6.974;2023-08-06T03:49:01;13.20;99.90
52731;DHT22;38624;53.242;6.974;2023-08-06T03:51:26;13.30;99.90
52731;DHT22;38624;53.242;6.974;2023-08-06T03:53:52;13.20;99.90
52731;DHT22;38624;53.242;6.974;2023-08-06T03:56:18;13.20;99.90
52731;DHT22;38624;53.242;6.974;2023-08-06T03:58:43;13.20;99.90
52731;DHT22;38624;53.242;6.974;2023-08-06T04:01:09;13.20;99.90
52731;DHT22;38624;53.242;6.974;2023-08-06T04:03:35;13.20;99.90
52731;DHT22;38624;53.242;6.974;2023-08-06T04:06:02;13.20;99.90
52731;DHT22;38624;53.242;6.974;2023-08-06T04:08:28;13.20;99.90
52731;DHT22;38624;53.242;6.974;2023-08-06T04:10:54;13.20;99.90
52731;DHT22;38624;53.242;6.974;2023-08-06T04:13:20;13.30;99.90
52731;DHT22;38624;53.242;6.974;2023-08-06T04:15:46;13.30;99.90
52731;DHT22;38624;53.242;6.974;2023-08-06T04:18:12;13.30;99.90
52731;DHT22;38624;53.242;6.974;2023-08-06T04:20:45;13.30;99.90
52731;DHT22;38624;53.242;6.974;2023-08-06T04:23:11;13.30;99.90
52731;DHT22;38624;53.242;6.974;2023-08-06T04:25:37;13.30;99.90
52731;DHT22;38624;53.242;6.974;2023-08-06T04:28:03;13.30;99.90
52731;DHT22;38624;53.242;6.974;2023-08-06T04:30:29;13.30;99.90
52731;DHT22;38624;53.242;6.974;2023-08-06T04:32:56;13.30;99.90
52731;DHT22;38624;53.242;6.974;2023-08-06T04:35:22;13.40;99.90
52731;DHT22;38624;53.242;6.974;2023-08-06T04:37:48;13.50;99.90
52731;DHT22;38624;53.242;6.974;2023-08-06T04:40:13;13.50;99.90
52731;DHT22;38624;53.242;6.974;2023-08-06T04:42:39;13.60;99.90
52731;DHT22;38624;53.242;6.974;2023-08-06T04:45:05;13.60;99.90
52731;DHT22;38624;53.242;6.974;2023-08-06T04:47:31;13.60;99.90
52731;DHT22;38624;53.242;6.974;2023-08-06T04:49:57;13.70;99.90
52731;DHT22;38624;53.242;6.974;2023-08-06T04:52:22;13.70;99.90
52731;DHT22;38624;53.242;6.974;2023-08-06T04:54:48;13.80;99.90
52731;DHT22;38624;53.242;6.974;2023-08-06T04:57:14;13.90;99.90
52731;DHT22;38624;53.242;6.974;2023-08-06T04:59:39;13.90;99.90
52731;DHT22;38624;53.242;6.974;2023-08-06T05:02:05;13.90;99.90
52731;DHT22;38624;53.242;6.974;2023-08-06T05:04:31;13.90;99.90
52731;DHT22;38624;53.242;6.974;2023-08-06T05:06:57;14.00;99.90
52731;DHT22;38624;53.242;6.974;2023-08-06T05:09:22;14.00;99.90
52731;DHT22;38624;53.242;6.974;2023-08-06T05:11:49;14.00;99.90
52731;DHT22;38624;53.242;6.974;2023-08-06T05:14:14;14.10;99.90
52731;DHT22;38624;53.242;6.974;2023-08-06T05:16:40;14.10;99.90
52731;DHT22;38624;53.242;6.974;2023-08-06T05:19:06;14.10;99.90
52731;DHT22;38624;53.242;6.974;2023-08-06T05:21:31;14.20;99.90
52731;DHT22;38624;53.242;6.974;2023-08-06T05:23:57;14.20;99.90
52731;DHT22;38624;53.242;6.974;2023-08-06T05:26:23;14.30;99.90
52731;DHT22;38624;53.242;6.974;2023-08-06T05:28:48;14.40;99.90
52731;DHT22;38624;53.242;6.974;2023-08-06T05:31:14;14.50;99.90
52731;DHT22;38624;53.242;6.974;2023-08-06T05:33:40;14.60;99.90
52731;DHT22;38624;53.242;6.974;2023-08-06T05:36:05;14.70;99.90
52731;DHT22;38624;53.242;6.974;2023-08-06T05:38:31;14.70;99.90
52731;DHT22;38624;53.242;6.974;2023-08-06T05:40:56;14.80;99.90
52731;DHT22;38624;53.242;6.974;2023-08-06T05:43:22;14.80;99.90
52731;DHT22;38624;53.242;6.974;2023-08-06T05:45:51;14.80;99.90
52731;DHT22;38624;53.242;6.974;2023-08-06T05:48:17;14.80;99.90
52731;DHT22;38624;53.242;6.974;2023-08-06T05:50:43;14.80;99.90
52731;DHT22;38624;53.242;6.974;2023-08-06T05:53:09;14.80;99.90
52731;DHT22;38624;53.242;6.974;2023-08-06T05:55:34;14.90;99.90
52731;DHT22;38624;53.242;6.974;2023-08-06T05:58:01;15.00;99.90
52731;DHT22;38624;53.242;6.974;2023-08-06T06:00:27;15.10;99.90
52731;DHT22;38624;53.242;6.974;2023-08-06T06:02:52;15.20;99.90
52731;DHT22;38624;53.242;6.974;2023-08-06T06:05:18;15.30;99.90
52731;DHT22;38624;53.242;6.974;2023-08-06T06:07:44;15.40;99.90
52731;DHT22;38624;53.242;6.974;2023-08-06T06:10:09;15.50;99.90
52731;DHT22;38624;53.242;6.974;2023-08-06T06:12:35;15.60;99.90
52731;DHT22;38624;53.242;6.974;2023-08-06T06:15:01;15.70;99.90
52731;DHT22;38624;53.242;6.974;2023-08-06T06:17:30;15.90;99.90
52731;DHT22;38624;53.242;6.974;2023-08-06T06:19:55;15.90;99.90
52731;DHT22;38624;53.242;6.974;2023-08-06T06:22:21;16.00;99.90
52731;DHT22;38624;53.242;6.974;2023-08-06T06:24:47;16.00;99.90
52731;DHT22;38624;53.242;6.974;2023-08-06T06:27:12;16.10;99.90
52731;DHT22;38624;53.242;6.974;2023-08-06T06:29:39;16.00;99.90
52731;DHT22;38624;53.242;6.974;2023-08-06T06:32:04;16.10;99.90
52731;DHT22;38624;53.242;6.974;2023-08-06T06:34:30;16.20;99.90
52731;DHT22;38624;53.242;6.974;2023-08-06T06:36:56;16.30;99.90
52731;DHT22;38624;53.242;6.974;2023-08-06T06:39:21;16.10;99.90
52731;DHT22;38624;53.242;6.974;2023-08-06T06:41:47;16.20;99.90
52731;DHT22;38624;53.242;6.974;2023-08-06T06:44:13;16.20;99.90
52731;DHT22;38624;53.242;6.974;2023-08-06T06:46:40;16.30;99.90
52731;DHT22;38624;53.242;6.974;2023-08-06T06:49:06;16.10;99.90
52731;DHT22;38624;53.242;6.974;2023-08-06T06:51:32;16.30;99.90
52731;DHT22;38624;53.242;6.974;2023-08-06T06:53:58;16.30;99.90
52731;DHT22;38624;53.242;6.974;2023-08-06T06:56:23;16.40;99.90
52731;DHT22;38624;53.242;6.974;2023-08-06T06:58:49;16.50;99.90
52731;DHT22;38624;53.242;6.974;2023-08-06T07:01:15;16.30;99.90
52731;DHT22;38624;53.242;6.974;2023-08-06T07:03:40;16.30;99.90
52731;DHT22;38624;53.242;6.974;2023-08-06T07:06:06;16.30;99.90
52731;DHT22;38624;53.242;6.974;2023-08-06T07:08:32;16.40;99.90
52731;DHT22;38624;53.242;6.974;2023-08-06T07:11:02;16.40;99.90
52731;DHT22;38624;53.242;6.974;2023-08-06T07:13:29;16.60;99.90
52731;DHT22;38624;53.242;6.974;2023-08-06T07:15:55;16.70;99.90
52731;DHT22;38624;53.242;6.974;2023-08-06T07:18:21;16.60;99.90
52731;DHT22;38624;53.242;6.974;2023-08-06T07:20:50;16.80;99.90
52731;DHT22;38624;53.242;6.974;2023-08-06T07:23:17;17.30;99.90
52731;DHT22;38624;53.242;6.974;2023-08-06T07:25:42;17.30;99.90
52731;DHT22;38624;53.242;6.974;2023-08-06T07:28:09;17.20;99.90
52731;DHT22;38624;53.242;6.974;2023-08-06T07:30:38;17.30;99.90
52731;DHT22;38624;53.242;6.974;2023-08-06T07:33:04;17.20;99.90
52731;DHT22;38624;53.242;6.974;2023-08-06T07:35:30;17.40;99.90
52731;DHT22;38624;53.242;6.974;2023-08-06T07:37:55;17.20;99.90
52731;DHT22;38624;53.242;6.974;2023-08-06T07:40:21;17.30;99.90
52731;DHT22;38624;53.242;6.974;2023-08-06T07:42:47;17.30;99.90
52731;DHT22;38624;53.242;6.974;2023-08-06T07:45:14;17.30;99.90
52731;DHT22;38624;53.242;6.974;2023-08-06T07:47:40;17.40;99.90
52731;DHT22;38624;53.242;6.974;2023-08-06T07:50:06;17.30;99.90
52731;DHT22;38624;53.242;6.974;2023-08-06T07:52:31;17.40;99.90
52731;DHT22;38624;53.242;6.974;2023-08-06T07:54:57;17.30;99.90
52731;DHT22;38624;53.242;6.974;2023-08-06T07:57:24;17.50;99.90
52731;DHT22;38624;53.242;6.974;2023-08-06T07:59:49;17.70;99.90
52731;DHT22;38624;53.242;6.974;2023-08-06T08:02:15;17.90;99.90
52731;DHT22;38624;53.242;6.974;2023-08-06T08:04:41;18.10;99.90
52731;DHT22;38624;53.242;6.974;2023-08-06T08:07:07;18.20;99.90
52731;DHT22;38624;53.242;6.974;2023-08-06T08:09:34;18.20;99.90
52731;DHT22;38624;53.242;6.974;2023-08-06T08:12:00;18.60;99.90
52731;DHT22;38624;53.242;6.974;2023-08-06T08:14:28;18.90;99.90
52731;DHT22;38624;53.242;6.974;2023-08-06T08:16:54;18.90;99.90
52731;DHT22;38624;53.242;6.974;2023-08-06T08:19:20;18.90;99.90
52731;DHT22;38624;53.242;6.974;2023-08-06T08:21:46;18.80;99.90
52731;DHT22;38624;53.242;6.974;2023-08-06T08:24:12;19.00;99.90
52731;DHT22;38624;53.242;6.974;2023-08-06T08:26:38;19.20;99.90
52731;DHT22;38624;53.242;6.974;2023-08-06T08:29:03;19.20;99.90
52731;DHT22;38624;53.242;6.974;2023-08-06T08:31:29;19.20;99.90
52731;DHT22;38624;53.242;6.974;2023-08-06T08:33:55;19.20;99.90
52731;DHT22;38624;53.242;6.974;2023-08-06T08:36:21;19.20;99.90
52731;DHT22;38624;53.242;6.974;2023-08-06T08:38:47;19.20;99.90
52731;DHT22;38624;53.242;6.974;2023-08-06T08:41:12;19.20;99.90
52731;DHT22;38624;53.242;6.974;2023-08-06T08:43:39;19.30;99.90
52731;DHT22;38624;53.242;6.974;2023-08-06T08:46:06;19.30;99.90
52731;DHT22;38624;53.242;6.974;2023-08-06T08:48:33;19.50;99.90
52731;DHT22;38624;53.242;6.974;2023-08-06T08:50:59;19.40;99.90
52731;DHT22;38624;53.242;6.974;2023-08-06T08:53:26;19.50;99.90
52731;DHT22;38624;53.242;6.974;2023-08-06T08:55:53;19.70;99.90
52731;DHT22;38624;53.242;6.974;2023-08-06T08:58:20;19.70;99.90
52731;DHT22;38624;53.242;6.974;2023-08-06T09:00:46;19.70;99.90
52731;DHT22;38624;53.242;6.974;2023-08-06T09:03:13;19.80;99.90
52731;DHT22;38624;53.242;6.974;2023-08-06T09:05:44;19.70;99.90
52731;DHT22;38624;53.242;6.974;2023-08-06T09:08:12;19.40;99.90
52731;DHT22;38624;53.242;6.974;2023-08-06T09:10:43;19.60;99.90
52731;DHT22;38624;53.242;6.974;2023-08-06T09:13:09;19.70;99.90
52731;DHT22;38624;53.242;6.974;2023-08-06T09:15:34;19.80;99.90
52731;DHT22;38624;53.242;6.974;2023-08-06T09:18:11;20.00;99.90
52731;DHT22;38624;53.242;6.974;2023-08-06T09:20:38;20.10;99.90
52731;DHT22;38624;53.242;6.974;2023-08-06T09:23:09;20.20;99.90
52731;DHT22;38624;53.242;6.974;2023-08-06T09:25:38;20.20;99.90
52731;DHT22;38624;53.242;6.974;2023-08-06T09:28:05;20.40;99.90
52731;DHT22;38624;53.242;6.974;2023-08-06T09:30:38;20.50;99.90
52731;DHT22;38624;53.242;6.974;2023-08-06T09:33:08;20.70;99.90
52731;DHT22;38624;53.242;6.974;2023-08-06T09:35:35;20.80;99.90
52731;DHT22;38624;53.242;6.974;2023-08-06T09:38:08;20.90;99.90
52731;DHT22;38624;53.242;6.974;2023-08-06T09:40:35;21.00;99.90
52731;DHT22;38624;53.242;6.974;2023-08-06T09:43:02;21.10;99.90
52731;DHT22;38624;53.242;6.974;2023-08-06T09:45:36;21.10;99.90
52731;DHT22;38624;53.242;6.974;2023-08-06T09:48:07;21.30;99.90
52731;DHT22;38624;53.242;6.974;2023-08-06T09:50:35;21.30;99.90
52731;DHT22;38624;53.242;6.974;2023-08-06T09:53:03;21.40;99.90
52731;DHT22;38624;53.242;6.974;2023-08-06T09:55:29;21.50;99.90
52731;DHT22;38624;53.242;6.974;2023-08-06T09:57:55;21.50;99.90
52731;DHT22;38624;53.242;6.974;2023-08-06T10:00:22;21.70;99.90
52731;DHT22;38624;53.242;6.974;2023-08-06T10:02:53;21.80;99.90
52731;DHT22;38624;53.242;6.974;2023-08-06T10:05:22;21.90;99.90
52731;DHT22;38624;53.242;6.974;2023-08-06T10:07:49;21.70;99.90
52731;DHT22;38624;53.242;6.974;2023-08-06T10:10:16;21.70;99.90
52731;DHT22;38624;53.242;6.974;2023-08-06T10:12:48;21.90;99.90
52731;DHT22;38624;53.242;6.974;2023-08-06T10:15:19;22.00;99.90
52731;DHT22;38624;53.242;6.974;2023-08-06T10:17:47;22.00;99.90
52731;DHT22;38624;53.242;6.974;2023-08-06T10:20:14;21.70;99.90
52731;DHT22;38624;53.242;6.974;2023-08-06T10:22:44;21.80;99.90
52731;DHT22;38624;53.242;6.974;2023-08-06T10:25:10;21.90;99.90
52731;DHT22;38624;53.242;6.974;2023-08-06T10:30:27;21.80;99.90
52731;DHT22;38624;53.242;6.974;2023-08-06T10:32:58;21.90;99.90
52731;DHT22;38624;53.242;6.974;2023-08-06T10:35:34;22.00;99.90
52731;DHT22;38624;53.242;6.974;2023-08-06T10:38:20;22.20;99.90
52731;DHT22;38624;53.242;6.974;2023-08-06T10:43:30;22.40;99.90
52731;DHT22;38624;53.242;6.974;2023-08-06T10:45:57;22.60;99.90
52731;DHT22;38624;53.242;6.974;2023-08-06T10:48:34;22.60;99.90
52731;DHT22;38624;53.242;6.974;2023-08-06T10:51:02;22.50;99.90
52731;DHT22;38624;53.242;6.974;2023-08-06T10:53:28;22.10;99.90
52731;DHT22;38624;53.242;6.974;2023-08-06T10:55:54;22.00;99.90
52731;DHT22;38624;53.242;6.974;2023-08-06T10:58:19;22.00;99.90
52731;DHT22;38624;53.242;6.974;2023-08-06T11:00:46;22.00;99.90
52731;DHT22;38624;53.242;6.974;2023-08-06T11:03:11;21.80;99.90
52731;DHT22;38624;53.242;6.974;2023-08-06T11:05:38;21.70;99.90
52731;DHT22;38624;53.242;6.974;2023-08-06T11:08:03;21.60;99.90
52731;DHT22;38624;53.242;6.974;2023-08-06T11:10:29;21.50;99.90
52731;DHT22;38624;53.242;6.974;2023-08-06T11:13:00;21.50;99.90
52731;DHT22;38624;53.242;6.974;2023-08-06T11:15:25;21.30;99.90
52731;DHT22;38624;53.242;6.974;2023-08-06T11:17:51;21.20;99.90
52731;DHT22;38624;53.242;6.974;2023-08-06T11:20:17;21.10;99.90
52731;DHT22;38624;53.242;6.974;2023-08-06T11:22:45;21.30;99.90
52731;DHT22;38624;53.242;6.974;2023-08-06T11:25:11;21.10;99.90
52731;DHT22;38624;53.242;6.974;2023-08-06T11:27:37;20.90;99.90
52731;DHT22;38624;53.242;6.974;2023-08-06T11:30:03;21.10;99.90
52731;DHT22;38624;53.242;6.974;2023-08-06T11:32:29;21.30;99.90
52731;DHT22;38624;53.242;6.974;2023-08-06T11:34:55;21.50;99.90
52731;DHT22;38624;53.242;6.974;2023-08-06T11:37:22;21.60;99.90
52731;DHT22;38624;53.242;6.974;2023-08-06T11:39:51;21.70;99.90
52731;DHT22;38624;53.242;6.974;2023-08-06T11:42:17;21.70;99.90
52731;DHT22;38624;53.242;6.974;2023-08-06T11:44:43;21.70;99.90
52731;DHT22;38624;53.242;6.974;2023-08-06T11:47:17;21.50;99.90
52731;DHT22;38624;53.242;6.974;2023-08-06T11:49:48;21.30;99.90
52731;DHT22;38624;53.242;6.974;2023-08-06T11:55:01;21.50;99.90
52731;DHT22;38624;53.242;6.974;2023-08-06T11:57:32;21.60;99.90
52731;DHT22;38624;53.242;6.974;2023-08-06T12:00:08;21.50;99.90
52731;DHT22;38624;53.242;6.974;2023-08-06T12:02:35;21.50;99.90
52731;DHT22;38624;53.242;6.974;2023-08-06T12:05:04;21.40;99.90
52731;DHT22;38624;53.242;6.974;2023-08-06T12:07:31;21.40;99.90
52731;DHT22;38624;53.242;6.974;2023-08-06T12:09:58;21.50;99.90
52731;DHT22;38624;53.242;6.974;2023-08-06T12:12:24;21.30;99.90
52731;DHT22;38624;53.242;6.974;2023-08-06T12:14:50;21.50;99.90
52731;DHT22;38624;53.242;6.974;2023-08-06T12:17:15;21.60;99.90
52731;DHT22;38624;53.242;6.974;2023-08-06T12:19:41;21.50;99.90
52731;DHT22;38624;53.242;6.974;2023-08-06T12:22:07;21.40;99.90
52731;DHT22;38624;53.242;6.974;2023-08-06T12:24:32;21.40;99.90
52731;DHT22;38624;53.242;6.974;2023-08-06T12:26:58;21.40;99.90
52731;DHT22;38624;53.242;6.974;2023-08-06T12:29:25;21.50;99.90
52731;DHT22;38624;53.242;6.974;2023-08-06T12:31:51;21.50;99.90
52731;DHT22;38624;53.242;6.974;2023-08-06T12:34:16;21.60;99.90
52731;DHT22;38624;53.242;6.974;2023-08-06T12:36:42;21.20;99.90
52731;DHT22;38624;53.242;6.974;2023-08-06T12:39:08;21.40;99.90
52731;DHT22;38624;53.242;6.974;2023-08-06T12:41:34;21.50;99.90
52731;DHT22;38624;53.242;6.974;2023-08-06T12:43:59;21.40;99.90
52731;DHT22;38624;53.242;6.974;2023-08-06T12:46:25;21.80;99.90
52731;DHT22;38624;53.242;6.974;2023-08-06T12:48:51;21.90;99.90
52731;DHT22;38624;53.242;6.974;2023-08-06T12:51:16;22.00;99.90
52731;DHT22;38624;53.242;6.974;2023-08-06T12:53:42;22.10;99.90
52731;DHT22;38624;53.242;6.974;2023-08-06T12:56:08;21.90;99.90
52731;DHT22;38624;53.242;6.974;2023-08-06T12:58:34;21.70;99.90
52731;DHT22;38624;53.242;6.974;2023-08-06T13:00:59;21.50;99.90
52731;DHT22;38624;53.242;6.974;2023-08-06T13:03:25;21.70;99.90
52731;DHT22;38624;53.242;6.974;2023-08-06T13:05:51;21.60;99.90
52731;DHT22;38624;53.242;6.974;2023-08-06T13:08:17;21.60;99.90
52731;DHT22;38624;53.242;6.974;2023-08-06T13:10:43;21.70;99.90
52731;DHT22;38624;53.242;6.974;2023-08-06T13:13:08;21.60;99.90
52731;DHT22;38624;53.242;6.974;2023-08-06T13:15:35;21.70;99.90
52731;DHT22;38624;53.242;6.974;2023-08-06T13:18:01;21.60;99.90
52731;DHT22;38624;53.242;6.974;2023-08-06T13:20:29;21.60;99.90
52731;DHT22;38624;53.242;6.974;2023-08-06T13:22:55;21.60;99.90
52731;DHT22;38624;53.242;6.974;2023-08-06T13:25:21;21.60;99.90
52731;DHT22;38624;53.242;6.974;2023-08-06T13:27:47;21.70;99.90
52731;DHT22;38624;53.242;6.974;2023-08-06T13:30:13;21.70;99.90
52731;DHT22;38624;53.242;6.974;2023-08-06T13:32:39;21.70;99.90
52731;DHT22;38624;53.242;6.974;2023-08-06T13:35:05;21.60;99.90
52731;DHT22;38624;53.242;6.974;2023-08-06T13:37:30;21.70;99.90
52731;DHT22;38624;53.242;6.974;2023-08-06T13:39:56;21.60;99.90
52731;DHT22;38624;53.242;6.974;2023-08-06T13:42:22;21.60;99.90
52731;DHT22;38624;53.242;6.974;2023-08-06T13:44:48;21.50;99.90
52731;DHT22;38624;53.242;6.974;2023-08-06T13:47:13;21.50;99.90
52731;DHT22;38624;53.242;6.974;2023-08-06T13:49:39;21.50;99.90
52731;DHT22;38624;53.242;6.974;2023-08-06T13:52:05;21.40;99.90
52731;DHT22;38624;53.242;6.974;2023-08-06T13:54:30;21.30;99.90
52731;DHT22;38624;53.242;6.974;2023-08-06T13:56:56;21.20;99.90
52731;DHT22;38624;53.242;6.974;2023-08-06T13:59:22;21.10;99.90
52731;DHT22;38624;53.242;6.974;2023-08-06T14:01:50;21.20;99.90
52731;DHT22;38624;53.242;6.974;2023-08-06T14:04:16;21.20;99.90
52731;DHT22;38624;53.242;6.974;2023-08-06T14:06:41;21.30;99.90
52731;DHT22;38624;53.242;6.974;2023-08-06T14:09:07;21.20;99.90
52731;DHT22;38624;53.242;6.974;2023-08-06T14:11:33;21.30;99.90
52731;DHT22;38624;53.242;6.974;2023-08-06T14:13:59;21.30;99.90
52731;DHT22;38624;53.242;6.974;2023-08-06T14:16:25;21.30;99.90
52731;DHT22;38624;53.242;6.974;2023-08-06T14:18:51;21.30;99.90
52731;DHT22;38624;53.242;6.974;2023-08-06T14:21:17;21.30;99.90
52731;DHT22;38624;53.242;6.974;2023-08-06T14:23:43;21.10;99.90
52731;DHT22;38624;53.242;6.974;2023-08-06T14:26:08;21.10;99.90
52731;DHT22;38624;53.242;6.974;2023-08-06T14:28:36;21.20;99.90
52731;DHT22;38624;53.242;6.974;2023-08-06T14:31:02;21.20;99.90
52731;DHT22;38624;53.242;6.974;2023-08-06T14:33:27;21.10;99.90
52731;DHT22;38624;53.242;6.974;2023-08-06T14:35:53;21.20;99.90
52731;DHT22;38624;53.242;6.974;2023-08-06T14:38:19;21.10;99.90
52731;DHT22;38624;53.242;6.974;2023-08-06T14:40:45;21.10;99.90
52731;DHT22;38624;53.242;6.974;2023-08-06T14:43:10;21.20;99.90
52731;DHT22;38624;53.242;6.974;2023-08-06T14:45:39;21.20;99.90
52731;DHT22;38624;53.242;6.974;2023-08-06T14:48:06;21.10;99.90
52731;DHT22;38624;53.242;6.974;2023-08-06T14:50:32;21.40;99.90
52731;DHT22;38624;53.242;6.974;2023-08-06T14:52:57;21.70;99.90
52731;DHT22;38624;53.242;6.974;2023-08-06T14:55:26;21.80;99.90
52731;DHT22;38624;53.242;6.974;2023-08-06T14:57:52;22.10;99.90
52731;DHT22;38624;53.242;6.974;2023-08-06T15:00:19;22.50;99.90
52731;DHT22;38624;53.242;6.974;2023-08-06T15:02:45;23.00;99.90
52731;DHT22;38624;53.242;6.974;2023-08-06T15:05:11;23.20;99.90
52731;DHT22;38624;53.242;6.974;2023-08-06T15:07:37;23.10;99.90
52731;DHT22;38624;53.242;6.974;2023-08-06T15:10:04;23.60;99.90
52731;DHT22;38624;53.242;6.974;2023-08-06T15:12:34;24.10;99.90
52731;DHT22;38624;53.242;6.974;2023-08-06T15:14:59;24.90;99.90
52731;DHT22;38624;53.242;6.974;2023-08-06T15:17:26;25.00;99.90
52731;DHT22;38624;53.242;6.974;2023-08-06T15:19:56;25.60;99.90
52731;DHT22;38624;53.242;6.974;2023-08-06T15:22:23;25.90;99.70
52731;DHT22;38624;53.242;6.974;2023-08-06T15:24:48;26.20;98.20
52731;DHT22;38624;53.242;6.974;2023-08-06T15:27:14;25.50;97.40
52731;DHT22;38624;53.242;6.974;2023-08-06T15:29:40;25.40;99.00
52731;DHT22;38624;53.242;6.974;2023-08-06T15:32:07;25.80;97.60
52731;DHT22;38624;53.242;6.974;2023-08-06T15:34:34;25.90;97.20
52731;DHT22;38624;53.242;6.974;2023-08-06T15:37:00;25.80;97.40